sensor_id;sensor_type;location;lat;lon;timestamp;pressure;altitude;pressure_sealevel;temperature;humidity
6851;BME280;3464;42.728;23.296;2023-05-19T00:02:12;95446.48;;;18.15;71.58
6851;BME280;3464;42.728;23.296;2023-05-19T00:04:39;95445.39;;;18.05;72.07
6851;BME280;3464;42.728;23.296;2023-05-19T00:07:05;95443.72;;;18.27;71.65
6851;BME280;3464;42.728;23.296;2023-05-19T00:09:32;95448.33;;;18.06;71.60
6851;BME280;3464;42.728;23.296;2023-05-19T00:11:59;95452.72;;;18.22;71.83
6851;BME280;3464;42.728;23.296;2023-05-19T00:14:27;95452.33;;;17.95;72.39
6851;BME280;3464;42.728;23.296;2023-05-19T00:16:54;95445.73;;;18.09;71.94
6851;BME280;3464;42.728;23.296;2023-05-19T00:19:22;95442.44;;;18.03;72.51
6851;BME280;3464;42.728;23.296;2023-05-19T00:21:48;95431.48;;;17.99;72.62
6851;BME280;3464;42.728;23.296;2023-05-19T00:24:15;95432.30;;;18.00;72.46
6851;BME280;3464;42.728;23.296;2023-05-19T00:26:42;95430.16;;;18.01;72.41
6851;BME280;3464;42.728;23.296;2023-05-19T00:29:08;95426.86;;;18.19;72.03
6851;BME280;3464;42.728;23.296;2023-05-19T00:34:01;95427.76;;;17.92;72.79
6851;BME280;3464;42.728;23.296;2023-05-19T00:36:28;95438.72;;;17.72;73.49
6851;BME280;3464;42.728;23.296;2023-05-19T00:38:55;95431.01;;;17.76;73.42
6851;BME280;3464;42.728;23.296;2023-05-19T00:41:21;95430.98;;;17.51;73.92
6851;BME280;3464;42.728;23.296;2023-05-19T00:43:48;95421.54;;;17.59;74.06
6851;BME280;3464;42.728;23.296;2023-05-19T00:46:14;95425.24;;;17.37;74.80
6851;BME280;3464;42.728;23.296;2023-05-19T00:48:41;95424.47;;;17.32;75.12
6851;BME280;3464;42.728;23.296;2023-05-19T00:51:07;95419.08;;;17.23;75.45
6851;BME280;3464;42.728;23.296;2023-05-19T00:53:34;95422.17;;;17.14;75.69
6851;BME280;3464;42.728;23.296;2023-05-19T00:56:01;95425.77;;;17.00;76.30
6851;BME280;3464;42.728;23.296;2023-05-19T00:58:28;95428.41;;;16.92;76.45
6851;BME280;3464;42.728;23.296;2023-05-19T01:00:56;95427.49;;;16.98;76.25
6851;BME280;3464;42.728;23.296;2023-05-19T01:03:22;95429.50;;;17.08;76.13
6851;BME280;3464;42.728;23.296;2023-05-19T01:05:49;95428.03;;;16.90;77.04
6851;BME280;3464;42.728;23.296;2023-05-19T01:08:15;95427.03;;;16.69;77.77
6851;BME280;3464;42.728;23.296;2023-05-19T01:10:42;95426.73;;;16.93;77.35
6851;BME280;3464;42.728;23.296;2023-05-19T01:13:08;95421.69;;;16.57;78.22
6851;BME280;3464;42.728;23.296;2023-05-19T01:15:39;95423.03;;;16.50;78.89
6851;BME280;3464;42.728;23.296;2023-05-19T01:18:09;95430.81;;;16.70;78.39
6851;BME280;3464;42.728;23.296;2023-05-19T01:20:38;95429.53;;;16.72;78.22
6851;BME280;3464;42.728;23.296;2023-05-19T01:23:11;95428.30;;;16.69;78.44
6851;BME280;3464;42.728;23.296;2023-05-19T01:25:55;95428.40;;;16.63;78.79
6851;BME280;3464;42.728;23.296;2023-05-19T01:31:06;95432.75;;;16.52;79.68
6851;BME280;3464;42.728;23.296;2023-05-19T01:33:33;95425.85;;;16.62;79.04
6851;BME280;3464;42.728;23.296;2023-05-19T01:36:01;95434.11;;;16.41;80.16
6851;BME280;3464;42.728;23.296;2023-05-19T01:38:27;95431.57;;;16.45;80.33
6851;BME280;3464;42.728;23.296;2023-05-19T01:40:53;95441.05;;;16.25;81.02
6851;BME280;3464;42.728;23.296;2023-05-19T01:43:24;95437.08;;;16.45;80.44
6851;BME280;3464;42.728;23.296;2023-05-19T01:45:46;95442.46;;;16.14;81.89
6851;BME280;3464;42.728;23.296;2023-05-19T01:48:13;95429.63;;;16.26;81.72
6851;BME280;3464;42.728;23.296;2023-05-19T01:50:40;95429.59;;;16.30;81.12
6851;BME280;3464;42.728;23.296;2023-05-19T01:53:06;95430.66;;;16.08;81.78
6851;BME280;3464;42.728;23.296;2023-05-19T01:55:34;95436.84;;;16.26;81.44
6851;BME280;3464;42.728;23.296;2023-05-19T01:58:06;95434.08;;;16.48;80.50
6851;BME280;3464;42.728;23.296;2023-05-19T02:05:58;95432.56;;;16.28;80.32
6851;BME280;3464;42.728;23.296;2023-05-19T02:08:26;95432.62;;;16.22;80.44
6851;BME280;3464;42.728;23.296;2023-05-19T02:10:50;95440.78;;;16.10;81.65
6851;BME280;3464;42.728;23.296;2023-05-19T02:13:17;95439.81;;;16.24;81.68
6851;BME280;3464;42.728;23.296;2023-05-19T02:15:43;95440.63;;;16.27;81.45
6851;BME280;3464;42.728;23.296;2023-05-19T02:18:10;95440.28;;;16.18;82.08
6851;BME280;3464;42.728;23.296;2023-05-19T02:20:38;95437.98;;;16.35;82.19
6851;BME280;3464;42.728;23.296;2023-05-19T02:23:04;95440.53;;;16.34;81.36
6851;BME280;3464;42.728;23.296;2023-05-19T02:25:31;95448.02;;;16.50;81.82
6851;BME280;3464;42.728;23.296;2023-05-19T02:27:58;95445.09;;;16.42;81.67
6851;BME280;3464;42.728;23.296;2023-05-19T02:30:25;95445.19;;;16.36;81.22
6851;BME280;3464;42.728;23.296;2023-05-19T02:32:51;95437.42;;;16.09;82.51
6851;BME280;3464;42.728;23.296;2023-05-19T02:35:19;95442.36;;;16.23;82.56
6851;BME280;3464;42.728;23.296;2023-05-19T02:37:45;95436.30;;;16.36;81.71
6851;BME280;3464;42.728;23.296;2023-05-19T02:40:11;95441.77;;;16.38;81.58
6851;BME280;3464;42.728;23.296;2023-05-19T02:42:38;95445.63;;;16.32;82.08
6851;BME280;3464;42.728;23.296;2023-05-19T02:45:04;95443.23;;;16.19;81.77
6851;BME280;3464;42.728;23.296;2023-05-19T02:47:31;95439.80;;;16.23;81.52
6851;BME280;3464;42.728;23.296;2023-05-19T02:49:58;95445.31;;;16.24;82.15
6851;BME280;3464;42.728;23.296;2023-05-19T02:52:24;95454.94;;;16.34;82.11
6851;BME280;3464;42.728;23.296;2023-05-19T02:54:51;95452.72;;;16.45;81.53
6851;BME280;3464;42.728;23.296;2023-05-19T02:57:17;95446.02;;;16.37;81.56
6851;BME280;3464;42.728;23.296;2023-05-19T02:59:44;95446.03;;;16.35;81.42
6851;BME280;3464;42.728;23.296;2023-05-19T03:02:10;95451.70;;;16.19;81.56
6851;BME280;3464;42.728;23.296;2023-05-19T03:04:37;95458.30;;;16.37;81.79
6851;BME280;3464;42.728;23.296;2023-05-19T03:07:03;95462.90;;;16.41;81.12
6851;BME280;3464;42.728;23.296;2023-05-19T03:09:30;95463.80;;;16.37;80.95
6851;BME280;3464;42.728;23.296;2023-05-19T03:11:56;95467.21;;;16.34;81.14
6851;BME280;3464;42.728;23.296;2023-05-19T03:14:23;95460.34;;;16.45;81.27
6851;BME280;3464;42.728;23.296;2023-05-19T03:16:49;95460.38;;;16.43;81.71
6851;BME280;3464;42.728;23.296;2023-05-19T03:19:17;95455.61;;;16.53;80.82
6851;BME280;3464;42.728;23.296;2023-05-19T03:21:44;95457.14;;;16.68;80.07
6851;BME280;3464;42.728;23.296;2023-05-19T03:24:11;95459.92;;;16.46;81.09
6851;BME280;3464;42.728;23.296;2023-05-19T03:26:39;95453.98;;;16.82;80.07
6851;BME280;3464;42.728;23.296;2023-05-19T03:29:06;95456.97;;;17.13;79.10
6851;BME280;3464;42.728;23.296;2023-05-19T03:31:33;95461.30;;;17.37;77.70
6851;BME280;3464;42.728;23.296;2023-05-19T03:34:00;95459.92;;;17.45;77.80
6851;BME280;3464;42.728;23.296;2023-05-19T03:36:27;95453.35;;;18.10;75.75
6851;BME280;3464;42.728;23.296;2023-05-19T03:38:55;95449.86;;;20.62;68.18
6851;BME280;3464;42.728;23.296;2023-05-19T03:41:22;95447.05;;;22.00;62.57
6851;BME280;3464;42.728;23.296;2023-05-19T03:43:49;95442.14;;;22.91;58.71
6851;BME280;3464;42.728;23.296;2023-05-19T03:46:15;95443.95;;;24.11;56.25
6851;BME280;3464;42.728;23.296;2023-05-19T03:48:42;95441.14;;;25.52;52.23
6851;BME280;3464;42.728;23.296;2023-05-19T03:51:08;95447.38;;;26.70;49.55
6851;BME280;3464;42.728;23.296;2023-05-19T03:53:35;95447.20;;;26.98;47.23
6851;BME280;3464;42.728;23.296;2023-05-19T03:56:01;95447.59;;;27.07;46.43
6851;BME280;3464;42.728;23.296;2023-05-19T03:58:28;95447.92;;;28.10;44.81
6851;BME280;3464;42.728;23.296;2023-05-19T04:00:54;95457.24;;;28.28;43.98
6851;BME280;3464;42.728;23.296;2023-05-19T04:03:21;95449.91;;;28.35;43.23
6851;BME280;3464;42.728;23.296;2023-05-19T04:05:48;95456.97;;;29.06;42.02
6851;BME280;3464;42.728;23.296;2023-05-19T04:08:14;95452.17;;;30.15;40.79
6851;BME280;3464;42.728;23.296;2023-05-19T04:10:41;95463.42;;;29.69;39.95
6851;BME280;3464;42.728;23.296;2023-05-19T04:13:07;95461.22;;;31.38;37.74
6851;BME280;3464;42.728;23.296;2023-05-19T04:15:34;95449.33;;;31.47;36.89
6851;BME280;3464;42.728;23.296;2023-05-19T04:18:00;95456.09;;;30.74;37.80
6851;BME280;3464;42.728;23.296;2023-05-19T04:20:27;95445.75;;;31.30;37.07
6851;BME280;3464;42.728;23.296;2023-05-19T04:22:53;95451.41;;;30.47;37.34
6851;BME280;3464;42.728;23.296;2023-05-19T04:25:20;95461.31;;;31.97;36.32
6851;BME280;3464;42.728;23.296;2023-05-19T04:27:47;95457.28;;;31.26;36.61
6851;BME280;3464;42.728;23.296;2023-05-19T04:30:14;95457.83;;;31.61;36.20
6851;BME280;3464;42.728;23.296;2023-05-19T04:32:41;95460.14;;;32.48;35.05
6851;BME280;3464;42.728;23.296;2023-05-19T04:35:08;95459.55;;;33.08;34.21
6851;BME280;3464;42.728;23.296;2023-05-19T04:37:35;95457.11;;;33.27;33.88
6851;BME280;3464;42.728;23.296;2023-05-19T04:40:02;95462.69;;;33.89;33.62
6851;BME280;3464;42.728;23.296;2023-05-19T04:42:29;95464.78;;;34.32;32.75
6851;BME280;3464;42.728;23.296;2023-05-19T04:44:55;95464.81;;;34.80;31.72
6851;BME280;3464;42.728;23.296;2023-05-19T04:47:22;95456.52;;;34.38;32.54
6851;BME280;3464;42.728;23.296;2023-05-19T04:49:49;95458.59;;;34.34;31.78
6851;BME280;3464;42.728;23.296;2023-05-19T04:52:15;95466.65;;;33.06;33.30
6851;BME280;3464;42.728;23.296;2023-05-19T04:54:42;95461.16;;;34.40;32.02
6851;BME280;3464;42.728;23.296;2023-05-19T04:57:08;95465.86;;;33.71;31.95
6851;BME280;3464;42.728;23.296;2023-05-19T04:59:35;95469.92;;;34.34;31.90
6851;BME280;3464;42.728;23.296;2023-05-19T05:02:01;95468.45;;;33.66;32.43
6851;BME280;3464;42.728;23.296;2023-05-19T05:04:28;95463.30;;;35.33;31.12
6851;BME280;3464;42.728;23.296;2023-05-19T05:06:54;95464.47;;;36.19;30.00
6851;BME280;3464;42.728;23.296;2023-05-19T05:09:21;95471.77;;;36.54;29.09
6851;BME280;3464;42.728;23.296;2023-05-19T05:11:49;95466.09;;;35.91;29.94
6851;BME280;3464;42.728;23.296;2023-05-19T05:14:15;95471.48;;;34.78;30.86
6851;BME280;3464;42.728;23.296;2023-05-19T05:16:42;95467.64;;;35.23;30.41
6851;BME280;3464;42.728;23.296;2023-05-19T05:19:09;95474.16;;;34.93;30.62
6851;BME280;3464;42.728;23.296;2023-05-19T05:21:36;95467.20;;;36.75;28.82
6851;BME280;3464;42.728;23.296;2023-05-19T05:24:03;95463.00;;;38.56;27.42
6851;BME280;3464;42.728;23.296;2023-05-19T05:26:30;95462.38;;;38.44;26.66
6851;BME280;3464;42.728;23.296;2023-05-19T05:28:56;95459.69;;;38.58;26.91
6851;BME280;3464;42.728;23.296;2023-05-19T05:31:23;95459.76;;;37.45;27.08
6851;BME280;3464;42.728;23.296;2023-05-19T05:33:50;95471.23;;;35.52;29.27
6851;BME280;3464;42.728;23.296;2023-05-19T05:36:16;95465.06;;;37.12;28.06
6851;BME280;3464;42.728;23.296;2023-05-19T05:38:43;95465.53;;;38.08;27.34
6851;BME280;3464;42.728;23.296;2023-05-19T05:41:10;95473.53;;;38.56;26.98
6851;BME280;3464;42.728;23.296;2023-05-19T05:43:36;95468.00;;;38.36;26.32
6851;BME280;3464;42.728;23.296;2023-05-19T05:46:03;95470.21;;;38.58;26.66
6851;BME280;3464;42.728;23.296;2023-05-19T05:48:30;95482.36;;;38.11;26.88
6851;BME280;3464;42.728;23.296;2023-05-19T05:50:57;95474.61;;;38.32;26.66
6851;BME280;3464;42.728;23.296;2023-05-19T05:53:24;95482.55;;;37.17;27.78
6851;BME280;3464;42.728;23.296;2023-05-19T05:55:50;95478.52;;;37.87;26.93
6851;BME280;3464;42.728;23.296;2023-05-19T05:58:17;95474.63;;;38.58;26.45
6851;BME280;3464;42.728;23.296;2023-05-19T06:00:44;95477.33;;;39.14;26.06
6851;BME280;3464;42.728;23.296;2023-05-19T06:03:10;95484.23;;;38.05;26.97
6851;BME280;3464;42.728;23.296;2023-05-19T06:05:37;95484.42;;;40.06;25.00
6851;BME280;3464;42.728;23.296;2023-05-19T06:08:03;95481.74;;;40.52;24.84
6851;BME280;3464;42.728;23.296;2023-05-19T06:10:30;95494.82;;;38.53;26.33
6851;BME280;3464;42.728;23.296;2023-05-19T06:12:57;95490.48;;;38.57;26.02
6851;BME280;3464;42.728;23.296;2023-05-19T06:15:23;95487.48;;;39.85;25.49
6851;BME280;3464;42.728;23.296;2023-05-19T06:17:50;95494.45;;;40.60;24.25
6851;BME280;3464;42.728;23.296;2023-05-19T06:20:17;95489.22;;;40.88;24.31
6851;BME280;3464;42.728;23.296;2023-05-19T06:22:43;95491.63;;;40.46;24.44
6851;BME280;3464;42.728;23.296;2023-05-19T06:25:10;95487.25;;;40.17;24.64
6851;BME280;3464;42.728;23.296;2023-05-19T06:27:37;95496.81;;;41.03;24.07
6851;BME280;3464;42.728;23.296;2023-05-19T06:30:04;95493.16;;;39.22;25.20
6851;BME280;3464;42.728;23.296;2023-05-19T06:32:31;95494.66;;;39.87;24.67
6851;BME280;3464;42.728;23.296;2023-05-19T06:34:58;95494.81;;;41.01;23.89
6851;BME280;3464;42.728;23.296;2023-05-19T06:37:24;95486.91;;;39.32;25.09
6851;BME280;3464;42.728;23.296;2023-05-19T06:39:52;95491.59;;;40.09;24.46
6851;BME280;3464;42.728;23.296;2023-05-19T06:42:18;95497.30;;;38.50;25.66
6851;BME280;3464;42.728;23.296;2023-05-19T06:44:45;95493.16;;;39.56;25.29
6851;BME280;3464;42.728;23.296;2023-05-19T06:47:11;95491.08;;;39.17;25.35
6851;BME280;3464;42.728;23.296;2023-05-19T06:49:39;95489.45;;;39.19;25.81
6851;BME280;3464;42.728;23.296;2023-05-19T06:52:06;95498.20;;;41.31;24.03
6851;BME280;3464;42.728;23.296;2023-05-19T06:54:33;95489.87;;;40.29;24.26
6851;BME280;3464;42.728;23.296;2023-05-19T06:56:59;95497.92;;;41.49;23.06
6851;BME280;3464;42.728;23.296;2023-05-19T06:59:26;95488.24;;;41.45;23.04
6851;BME280;3464;42.728;23.296;2023-05-19T07:01:53;95501.12;;;41.83;22.90
6851;BME280;3464;42.728;23.296;2023-05-19T07:04:19;95502.61;;;41.94;23.17
6851;BME280;3464;42.728;23.296;2023-05-19T07:06:46;95499.02;;;42.17;23.10
6851;BME280;3464;42.728;23.296;2023-05-19T07:09:12;95502.86;;;42.26;22.50
6851;BME280;3464;42.728;23.296;2023-05-19T07:11:39;95496.17;;;43.51;21.31
6851;BME280;3464;42.728;23.296;2023-05-19T07:14:05;95493.34;;;43.96;21.13
6851;BME280;3464;42.728;23.296;2023-05-19T07:16:32;95502.61;;;45.62;19.78
6851;BME280;3464;42.728;23.296;2023-05-19T07:18:58;95493.74;;;46.03;19.49
6851;BME280;3464;42.728;23.296;2023-05-19T07:21:25;95495.86;;;44.01;20.24
6851;BME280;3464;42.728;23.296;2023-05-19T07:23:51;95501.14;;;41.91;22.30
6851;BME280;3464;42.728;23.296;2023-05-19T07:26:18;95498.55;;;42.86;21.20
6851;BME280;3464;42.728;23.296;2023-05-19T07:28:44;95509.48;;;42.30;21.89
6851;BME280;3464;42.728;23.296;2023-05-19T07:31:11;95506.22;;;42.05;21.78
6851;BME280;3464;42.728;23.296;2023-05-19T07:33:38;95507.11;;;41.34;22.29
6851;BME280;3464;42.728;23.296;2023-05-19T07:36:04;95505.48;;;41.13;22.53
6851;BME280;3464;42.728;23.296;2023-05-19T07:38:31;95500.64;;;41.83;22.92
6851;BME280;3464;42.728;23.296;2023-05-19T07:40:58;95495.59;;;40.42;23.13
6851;BME280;3464;42.728;23.296;2023-05-19T07:43:25;95491.81;;;39.69;23.91
6851;BME280;3464;42.728;23.296;2023-05-19T07:45:51;95500.77;;;41.67;22.27
6851;BME280;3464;42.728;23.296;2023-05-19T07:48:18;95493.42;;;43.59;21.21
6851;BME280;3464;42.728;23.296;2023-05-19T07:50:44;95493.80;;;44.60;19.95
6851;BME280;3464;42.728;23.296;2023-05-19T07:53:11;95493.83;;;44.17;20.72
6851;BME280;3464;42.728;23.296;2023-05-19T07:55:37;95493.02;;;41.10;22.04
6851;BME280;3464;42.728;23.296;2023-05-19T07:58:04;95496.82;;;41.19;22.21
6851;BME280;3464;42.728;23.296;2023-05-19T08:00:30;95490.82;;;42.76;21.74
6851;BME280;3464;42.728;23.296;2023-05-19T08:02:57;95495.56;;;43.19;22.17
6851;BME280;3464;42.728;23.296;2023-05-19T08:05:23;95490.19;;;39.42;24.17
6851;BME280;3464;42.728;23.296;2023-05-19T08:07:50;95496.50;;;37.27;26.06
6851;BME280;3464;42.728;23.296;2023-05-19T08:10:17;95497.34;;;35.98;27.57
6851;BME280;3464;42.728;23.296;2023-05-19T08:12:43;95503.20;;;35.00;29.07
6851;BME280;3464;42.728;23.296;2023-05-19T08:15:10;95495.41;;;34.20;30.02
6851;BME280;3464;42.728;23.296;2023-05-19T08:17:36;95495.45;;;32.81;31.46
6851;BME280;3464;42.728;23.296;2023-05-19T08:20:03;95498.13;;;34.03;30.54
6851;BME280;3464;42.728;23.296;2023-05-19T08:22:30;95498.80;;;34.16;30.62
6851;BME280;3464;42.728;23.296;2023-05-19T08:24:57;95499.51;;;33.53;30.46
6851;BME280;3464;42.728;23.296;2023-05-19T08:27:23;95495.84;;;31.69;33.00
6851;BME280;3464;42.728;23.296;2023-05-19T08:29:50;95488.97;;;31.81;32.72
6851;BME280;3464;42.728;23.296;2023-05-19T08:32:16;95490.98;;;30.64;34.41
6851;BME280;3464;42.728;23.296;2023-05-19T08:34:43;95500.30;;;29.87;35.24
6851;BME280;3464;42.728;23.296;2023-05-19T08:37:10;95493.48;;;29.30;36.06
6851;BME280;3464;42.728;23.296;2023-05-19T08:39:36;95495.19;;;29.58;36.66
6851;BME280;3464;42.728;23.296;2023-05-19T08:42:03;95494.63;;;30.08;36.77
6851;BME280;3464;42.728;23.296;2023-05-19T08:44:30;95499.83;;;28.97;37.44
6851;BME280;3464;42.728;23.296;2023-05-19T08:46:57;95497.69;;;27.84;38.82
6851;BME280;3464;42.728;23.296;2023-05-19T08:49:25;95494.79;;;28.28;38.20
6851;BME280;3464;42.728;23.296;2023-05-19T08:51:54;95493.73;;;28.54;37.75
6851;BME280;3464;42.728;23.296;2023-05-19T08:54:19;95494.56;;;29.06;38.53
6851;BME280;3464;42.728;23.296;2023-05-19T08:56:46;95495.36;;;29.63;37.27
6851;BME280;3464;42.728;23.296;2023-05-19T08:59:13;95494.67;;;29.80;36.98
6851;BME280;3464;42.728;23.296;2023-05-19T09:01:42;95493.69;;;27.78;39.47
6851;BME280;3464;42.728;23.296;2023-05-19T09:04:08;95491.09;;;27.71;39.57
6851;BME280;3464;42.728;23.296;2023-05-19T09:06:34;95489.50;;;27.12;40.56
6851;BME280;3464;42.728;23.296;2023-05-19T09:09:01;95479.12;;;27.69;39.60
6851;BME280;3464;42.728;23.296;2023-05-19T09:11:35;95483.11;;;27.36;40.41
6851;BME280;3464;42.728;23.296;2023-05-19T09:14:01;95477.97;;;27.27;40.72
6851;BME280;3464;42.728;23.296;2023-05-19T09:16:28;95468.23;;;27.63;40.81
6851;BME280;3464;42.728;23.296;2023-05-19T09:18:55;95476.23;;;27.11;40.67
6851;BME280;3464;42.728;23.296;2023-05-19T09:21:29;95468.99;;;27.65;40.68
6851;BME280;3464;42.728;23.296;2023-05-19T09:23:57;95472.20;;;26.55;41.97
6851;BME280;3464;42.728;23.296;2023-05-19T09:26:23;95474.10;;;27.02;41.34
6851;BME280;3464;42.728;23.296;2023-05-19T09:28:50;95475.80;;;26.78;41.67
6851;BME280;3464;42.728;23.296;2023-05-19T09:31:17;95466.91;;;26.67;42.01
6851;BME280;3464;42.728;23.296;2023-05-19T09:33:43;95463.95;;;26.74;41.89
6851;BME280;3464;42.728;23.296;2023-05-19T09:36:10;95461.86;;;27.14;41.46
6851;BME280;3464;42.728;23.296;2023-05-19T09:38:37;95457.98;;;27.14;41.13
6851;BME280;3464;42.728;23.296;2023-05-19T09:41:05;95456.92;;;26.59;42.61
6851;BME280;3464;42.728;23.296;2023-05-19T09:43:32;95459.62;;;27.24;41.04
6851;BME280;3464;42.728;23.296;2023-05-19T09:45:59;95460.39;;;26.51;40.38
6851;BME280;3464;42.728;23.296;2023-05-19T09:48:27;95452.72;;;26.83;40.87
6851;BME280;3464;42.728;23.296;2023-05-19T09:50:53;95441.50;;;27.40;40.50
6851;BME280;3464;42.728;23.296;2023-05-19T09:53:20;95452.02;;;27.11;41.21
6851;BME280;3464;42.728;23.296;2023-05-19T09:55:47;95441.66;;;28.51;39.75
6851;BME280;3464;42.728;23.296;2023-05-19T09:58:15;95451.31;;;28.70;39.19
6851;BME280;3464;42.728;23.296;2023-05-19T10:00:41;95436.20;;;29.41;38.56
6851;BME280;3464;42.728;23.296;2023-05-19T10:03:08;95445.94;;;29.44;37.10
6851;BME280;3464;42.728;23.296;2023-05-19T10:05:34;95440.31;;;28.37;38.85
6851;BME280;3464;42.728;23.296;2023-05-19T10:08:01;95450.61;;;27.31;38.87
6851;BME280;3464;42.728;23.296;2023-05-19T10:10:28;95438.91;;;26.92;37.61
6851;BME280;3464;42.728;23.296;2023-05-19T10:12:55;95436.09;;;28.06;36.66
6851;BME280;3464;42.728;23.296;2023-05-19T10:15:22;95434.39;;;27.28;38.32
6851;BME280;3464;42.728;23.296;2023-05-19T10:17:48;95436.48;;;27.21;39.54
6851;BME280;3464;42.728;23.296;2023-05-19T10:20:15;95438.70;;;27.36;39.30
6851;BME280;3464;42.728;23.296;2023-05-19T10:22:42;95440.19;;;26.76;39.00
6851;BME280;3464;42.728;23.296;2023-05-19T10:25:09;95438.39;;;25.65;39.60
6851;BME280;3464;42.728;23.296;2023-05-19T10:27:39;95434.77;;;26.13;42.13
6851;BME280;3464;42.728;23.296;2023-05-19T10:30:08;95451.41;;;26.24;42.22
6851;BME280;3464;42.728;23.296;2023-05-19T10:32:33;95436.03;;;26.31;41.03
6851;BME280;3464;42.728;23.296;2023-05-19T10:35:11;95425.20;;;28.00;39.80
6851;BME280;3464;42.728;23.296;2023-05-19T10:37:52;95423.31;;;28.26;38.03
6851;BME280;3464;42.728;23.296;2023-05-19T10:40:32;95425.43;;;27.50;39.12
6851;BME280;3464;42.728;23.296;2023-05-19T10:43:06;95425.03;;;28.33;37.98
6851;BME280;3464;42.728;23.296;2023-05-19T10:45:33;95430.91;;;28.06;38.42
6851;BME280;3464;42.728;23.296;2023-05-19T10:47:58;95425.77;;;28.35;37.79
6851;BME280;3464;42.728;23.296;2023-05-19T10:50:25;95427.87;;;28.87;37.50
6851;BME280;3464;42.728;23.296;2023-05-19T10:52:52;95412.02;;;30.47;35.57
6851;BME280;3464;42.728;23.296;2023-05-19T10:55:43;95414.76;;;30.05;34.99
6851;BME280;3464;42.728;23.296;2023-05-19T10:57:54;95419.28;;;29.49;36.23
6851;BME280;3464;42.728;23.296;2023-05-19T11:00:26;95405.52;;;30.21;34.79
6851;BME280;3464;42.728;23.296;2023-05-19T11:02:52;95415.36;;;30.49;34.52
6851;BME280;3464;42.728;23.296;2023-05-19T11:05:24;95407.48;;;30.31;35.06
6851;BME280;3464;42.728;23.296;2023-05-19T11:07:59;95414.11;;;29.69;35.62
6851;BME280;3464;42.728;23.296;2023-05-19T11:10:29;95411.72;;;28.83;36.05
6851;BME280;3464;42.728;23.296;2023-05-19T11:12:56;95416.37;;;29.06;36.40
6851;BME280;3464;42.728;23.296;2023-05-19T11:15:24;95419.78;;;28.41;36.13
6851;BME280;3464;42.728;23.296;2023-05-19T11:17:50;95416.48;;;29.03;36.08
6851;BME280;3464;42.728;23.296;2023-05-19T11:20:23;95422.37;;;28.41;36.03
6851;BME280;3464;42.728;23.296;2023-05-19T11:23:14;95419.11;;;27.70;36.64
6851;BME280;3464;42.728;23.296;2023-05-19T11:25:43;95417.50;;;28.51;35.91
6851;BME280;3464;42.728;23.296;2023-05-19T11:28:10;95407.40;;;30.51;32.56
6851;BME280;3464;42.728;23.296;2023-05-19T11:30:39;95402.49;;;30.01;33.16
6851;BME280;3464;42.728;23.296;2023-05-19T11:33:06;95411.09;;;29.34;34.03
6851;BME280;3464;42.728;23.296;2023-05-19T11:35:33;95422.90;;;27.49;35.84
6851;BME280;3464;42.728;23.296;2023-05-19T11:38:00;95416.86;;;26.52;36.81
6851;BME280;3464;42.728;23.296;2023-05-19T11:40:28;95412.41;;;26.47;37.54
6851;BME280;3464;42.728;23.296;2023-05-19T11:42:54;95413.25;;;26.72;38.32
6851;BME280;3464;42.728;23.296;2023-05-19T11:45:25;95415.66;;;27.08;39.11
6851;BME280;3464;42.728;23.296;2023-05-19T11:47:53;95405.95;;;27.51;38.64
6851;BME280;3464;42.728;23.296;2023-05-19T11:50:18;95411.58;;;28.34;36.35
6851;BME280;3464;42.728;23.296;2023-05-19T11:52:45;95415.61;;;27.25;36.69
6851;BME280;3464;42.728;23.296;2023-05-19T11:55:16;95419.31;;;26.21;37.71
6851;BME280;3464;42.728;23.296;2023-05-19T11:57:57;95418.55;;;26.02;38.85
6851;BME280;3464;42.728;23.296;2023-05-19T12:00:26;95414.85;;;26.99;37.85
6851;BME280;3464;42.728;23.296;2023-05-19T12:02:53;95413.28;;;27.12;37.19
6851;BME280;3464;42.728;23.296;2023-05-19T12:05:21;95416.09;;;27.24;37.49
6851;BME280;3464;42.728;23.296;2023-05-19T12:07:48;95452.26;;;26.33;39.46
6851;BME280;3464;42.728;23.296;2023-05-19T12:10:15;95447.50;;;25.89;41.57
6851;BME280;3464;42.728;23.296;2023-05-19T12:12:42;95449.23;;;25.62;42.75
6851;BME280;3464;42.728;23.296;2023-05-19T12:15:09;95463.75;;;26.09;43.34
6851;BME280;3464;42.728;23.296;2023-05-19T12:17:36;95465.22;;;24.85;43.81
6851;BME280;3464;42.728;23.296;2023-05-19T12:20:05;95485.55;;;25.20;43.77
6851;BME280;3464;42.728;23.296;2023-05-19T12:22:31;95480.22;;;24.35;46.01
6851;BME280;3464;42.728;23.296;2023-05-19T12:24:58;95480.02;;;24.40;45.56
6851;BME280;3464;42.728;23.296;2023-05-19T12:27:26;95478.91;;;24.76;44.69
6851;BME280;3464;42.728;23.296;2023-05-19T12:29:52;95478.92;;;24.96;44.28
6851;BME280;3464;42.728;23.296;2023-05-19T12:32:23;95474.94;;;24.58;45.22
6851;BME280;3464;42.728;23.296;2023-05-19T12:34:50;95461.93;;;25.01;46.10
6851;BME280;3464;42.728;23.296;2023-05-19T12:37:16;95459.18;;;25.52;45.28
6851;BME280;3464;42.728;23.296;2023-05-19T12:39:43;95463.66;;;25.39;45.26
6851;BME280;3464;42.728;23.296;2023-05-19T12:42:10;95465.06;;;25.73;43.57
6851;BME280;3464;42.728;23.296;2023-05-19T12:44:41;95449.63;;;26.08;44.23
6851;BME280;3464;42.728;23.296;2023-05-19T12:47:08;95443.64;;;26.58;43.05
6851;BME280;3464;42.728;23.296;2023-05-19T12:49:34;95427.51;;;27.28;41.95
6851;BME280;3464;42.728;23.296;2023-05-19T12:52:01;95424.48;;;27.82;40.47
6851;BME280;3464;42.728;23.296;2023-05-19T12:54:32;95423.13;;;27.91;40.21
6851;BME280;3464;42.728;23.296;2023-05-19T12:56:59;95420.41;;;27.94;39.67
6851;BME280;3464;42.728;23.296;2023-05-19T12:59:25;95424.00;;;27.91;39.03
6851;BME280;3464;42.728;23.296;2023-05-19T13:01:56;95420.09;;;27.53;39.48
6851;BME280;3464;42.728;23.296;2023-05-19T13:04:24;95420.64;;;27.11;39.23
6851;BME280;3464;42.728;23.296;2023-05-19T13:06:51;95423.25;;;27.11;39.59
6851;BME280;3464;42.728;23.296;2023-05-19T13:09:16;95414.34;;;27.00;38.62
6851;BME280;3464;42.728;23.296;2023-05-19T13:11:44;95423.38;;;26.59;39.05
6851;BME280;3464;42.728;23.296;2023-05-19T13:14:11;95419.77;;;26.54;38.89
6851;BME280;3464;42.728;23.296;2023-05-19T13:16:37;95426.05;;;26.41;39.13
6851;BME280;3464;42.728;23.296;2023-05-19T13:19:04;95424.80;;;26.56;39.15
6851;BME280;3464;42.728;23.296;2023-05-19T13:21:31;95416.78;;;26.20;39.36